Terminal Aerodrome Forecast
Issued by NWS

Home | Current Version | Previous Version | Text Only | Print | Product List | Glossary On
Versions: 1 2 3 4 5 6 7 8 9 10 11 12 13 14 15 16 17 18 19 20 21 22 23 24 25 26
000
FTUS41 KBUF 281100
TAFIAG
TAF
KIAG 281123Z 2812/2912 32005KT P6SM SCT020
      TEMPO 2812/2815 BKN020
     FM281500 35008KT P6SM SCT030
     FM281900 35008KT P6SM SCT150
     FM290000 34004KT P6SM SCT250=

USA.gov is the U.S. government's official web portal to all federal, state and local government web resources and services.